KGBK

Magnolia

Magnolia, Louisiana, USA
METAR KGBK 231415Z AUTO 11008KT 10SM CLR 31/28 A3022 RMK A01
Observed Flight Rules
Feb-23 @ 14:15 UTC (23 minutes ago) Visual Flight Rules
Wind Visibility Clouds
110° at 8 knots 10 miles
  • Clear skies
Temperatures Readings
Current 31°C / 88°F
Dewpoint 28°C / 82°F
Humidity 84%
Altimeter 30.22" Hg
Pressure 1023 hPa
Elevation 59
METAR KGBK 231415Z AUTO 11008KT 10SM CLR 31/28 A3022 RMK A01
Observed Flight Rules
Feb-23 @ 14:15 UTC
(23 minutes ago)
VFR
Wind Visibility
110° at 8 knots 10 miles
Clouds
  • Clear skies
Temperature Dewpoint
31°C / 88°F 28°C / 82°F
Humidity Altimeter Pressure
84% 30.22" Hg 1023 hPa